Radom, Poland

5:01 PM CEST on September 02, 2014 (GMT +0200)
Radom | Change Station
CLOSE
Current Station
Personal Weather Station
Location: Radom, MAZOWIECKIE
Elevation: 577 ft
Nearby Weather Stations

Elev 577 ft 51.37 °N, 21.15 °E | Updated 57 seconds ago

Clear
Clear
64.6 °F
Feels Like 64.6 °F
N
5.1
Wind Variable Wind from NNE
Gusts 0.0 mph

Today
High -- | Low -- °F
--% Chance of Precip.
Yesterday
High -- | Low -- °F
Precip. -- in
5:49 AM 7:19 PM
First Quarter, 52% visible
Pressure 30.12 in
Visibility -9999.0 miles
Clouds
Dew Point 58 °F
Humidity 78%
Rainfall -999.00 in
Snow Depth Not available.
UV Not available.
Pollen Not available.
Air Quality Not available.
Flu Activity Not available.
METAR EPWA 021430Z 06013KT 020V090 CAVOK 18/11 Q1020 NOSIG

More Conditions Fewer Conditions

Pressure 30.12 in
Visibility -9999.0 miles
Clouds
Dew Point 58 °F
Humidity 78%
Rainfall -999.00 in
Snow Depth Not available.
UV Not available.
Pollen Not available.
Air Quality Not available.
Flu Activity Not available.
METAR EPWA 021430Z 06013KT 020V090 CAVOK 18/11 Q1020 NOSIG

More Conditions Fewer Conditions

10-Day Weather Forecast

Almanac

Astronomy

Sep. 02, 2014 Rise Set
Actual Time 5:49 AM CEST 7:19 PM CEST
Civil Twilight 5:14 AM CEST 7:54 PM CEST
Nautical Twilight 4:32 AM CEST 8:36 PM CEST
Astronomical Twilight 3:45 AM CEST 9:23 PM CEST
Moon 2:04 PM CEST 11:07 PM CEST
Length of Visible Light 14h 39m
Length of Day
13h 30m
Tomorrow will be 3m 49s shorter.
First Quarter, 52% of the Moon is Illuminated
Today
First Quarter
Sep 8
Full
Sep 15
Last Quarter
Sep 24
New
Oct 1
First Quarter

Today's Extremes

Country Highs Country Lows

Community

WunderPhotos

Upload Photos

1,749,688 photos uploaded!

WunderBlogs® & News

Nearby

Snow Depth

Not available.

Earthquake Activity

City Distance Mag. Time & Date
No recent earthquake activity has been reported nearby.
Minimum magnitude displayed is 2.5.

Coastal Water Temperatures

Place Temperature
No Stations Reporting

Nearby Weather Stations